createdAt,value
2022-12-11T00:02:16.896Z,100681.13
2022-12-11T00:05:40.513Z,100681.16
2022-12-11T00:09:04.488Z,100672.84
2022-12-11T00:12:31.025Z,100664.53
2022-12-11T00:15:53.261Z,100675.53
2022-12-11T00:19:15.021Z,100672.16
2022-12-11T00:22:37.509Z,100673.09
2022-12-11T00:25:59.322Z,100673.00
2022-12-11T00:29:22.385Z,100666.97
2022-12-11T00:32:44.479Z,100667.72
2022-12-11T00:36:12.743Z,100663.47
2022-12-11T00:39:34.499Z,100665.44
2022-12-11T00:42:56.108Z,100671.41
2022-12-11T00:46:19.476Z,100666.47
2022-12-11T00:49:45.182Z,100667.41
2022-12-11T00:53:11.538Z,100679.47
2022-12-11T00:56:33.578Z,100680.44
2022-12-11T00:59:55.716Z,100682.31
2022-12-11T01:03:19.372Z,100682.31
2022-12-11T01:06:41.271Z,100681.47
2022-12-11T01:10:20.654Z,100679.81
2022-12-11T01:13:44.509Z,100674.66
2022-12-11T01:17:06.370Z,100681.56
2022-12-11T01:20:29.861Z,100689.19
2022-12-11T01:23:51.959Z,100686.66
2022-12-11T01:27:13.522Z,100677.38
2022-12-11T01:30:35.964Z,100674.75
2022-12-11T01:33:58.237Z,100675.00
2022-12-11T01:37:21.592Z,100649.25
2022-12-11T01:40:53.205Z,100680.13
2022-12-11T01:44:48.032Z,100680.28
2022-12-11T01:48:12.775Z,100680.28
2022-12-11T01:51:38.630Z,100684.69
2022-12-11T01:55:02.519Z,100686.19
2022-12-11T01:58:28.841Z,100689.72
2022-12-11T02:01:56.318Z,100691.56
2022-12-11T02:05:21.259Z,100682.41
2022-12-11T02:08:42.887Z,100683.28
2022-12-11T02:12:16.614Z,100680.75
2022-12-11T02:15:48.646Z,100681.78
2022-12-11T02:19:23.094Z,100663.31
2022-12-11T02:23:26.110Z,100693.38
2022-12-11T02:27:09.930Z,100686.00
2022-12-11T02:30:34.700Z,100691.88
2022-12-11T02:34:02.511Z,100686.50
2022-12-11T02:37:31.554Z,100697.66
2022-12-11T02:40:56.786Z,100699.47
2022-12-11T02:44:24.703Z,100703.69
2022-12-11T02:47:50.499Z,100698.78
2022-12-11T02:51:15.562Z,100678.50
2022-12-11T02:54:40.821Z,100690.53
2022-12-11T02:58:08.816Z,100686.16
2022-12-11T03:01:31.081Z,100682.75
2022-12-11T03:04:54.554Z,100685.28
2022-12-11T03:08:17.999Z,100688.78
2022-12-11T03:11:39.644Z,100686.31
2022-12-11T03:15:04.220Z,100678.00
2022-12-11T03:18:32.320Z,100677.91
2022-12-11T03:22:01.766Z,100676.31
2022-12-11T03:25:27.613Z,100676.44
2022-12-11T03:28:52.427Z,100661.78
2022-12-11T03:32:20.028Z,100681.59
2022-12-11T03:35:44.267Z,100678.88
2022-12-11T03:39:11.891Z,100690.00
2022-12-11T03:42:36.851Z,100688.16
2022-12-11T03:46:00.747Z,100696.59
2022-12-11T03:49:27.435Z,100700.69
2022-12-11T03:52:51.122Z,100696.56
2022-12-11T03:56:21.528Z,100687.03
2022-12-11T03:59:43.426Z,100692.22
2022-12-11T04:03:18.047Z,100689.72
2022-12-11T04:06:39.773Z,100694.88
2022-12-11T04:10:01.989Z,100689.91
2022-12-11T04:13:25.307Z,100689.19
2022-12-11T04:16:45.855Z,100681.59
2022-12-11T04:20:26.618Z,100692.88
2022-12-11T04:24:05.648Z,100697.22
2022-12-11T04:27:45.551Z,100692.28
2022-12-11T04:31:13.015Z,100692.28
2022-12-11T04:34:34.971Z,100690.72
2022-12-11T04:37:56.842Z,100689.22
2022-12-11T04:41:18.688Z,100681.66
2022-12-11T04:44:40.466Z,100679.19
2022-12-11T04:48:03.801Z,100671.69
2022-12-11T04:51:26.039Z,100653.88
2022-12-11T04:54:48.187Z,100671.81
2022-12-11T04:58:10.186Z,100682.06
2022-12-11T05:01:32.286Z,100681.31
2022-12-11T05:04:55.822Z,100675.50
2022-12-11T05:08:17.640Z,100672.91
2022-12-11T05:11:40.133Z,100679.88
2022-12-11T05:15:02.629Z,100683.47
2022-12-11T05:18:24.680Z,100682.66
2022-12-11T05:21:47.916Z,100681.09
2022-12-11T05:25:11.277Z,100689.53
2022-12-11T05:28:34.775Z,100690.31
2022-12-11T05:31:56.514Z,100688.38
2022-12-11T05:35:18.680Z,100690.09
2022-12-11T05:38:41.681Z,100688.53
2022-12-11T05:42:03.718Z,100697.09
2022-12-11T05:45:25.509Z,100700.44
2022-12-11T05:48:49.982Z,100697.13
2022-12-11T05:52:12.044Z,100695.59
2022-12-11T05:55:37.459Z,100703.22
2022-12-11T05:59:00.075Z,100692.34
2022-12-11T06:02:21.863Z,100699.94
2022-12-11T06:05:44.319Z,100705.03
2022-12-11T06:09:07.641Z,100710.28
2022-12-11T06:12:31.216Z,100708.69
2022-12-11T06:15:53.013Z,100698.38
2022-12-11T06:19:18.681Z,100718.00
2022-12-11T06:22:40.436Z,100712.31
2022-12-11T06:26:04.499Z,100710.69
2022-12-11T06:29:27.709Z,100718.50
2022-12-11T06:32:49.821Z,100725.47
2022-12-11T06:36:13.585Z,100698.84
2022-12-11T06:39:38.337Z,100705.84
2022-12-11T06:43:00.075Z,100734.03
2022-12-11T06:46:23.553Z,100729.88
2022-12-11T06:49:45.046Z,100737.50
2022-12-11T06:53:06.792Z,100738.47
2022-12-11T06:56:54.036Z,100743.63
2022-12-11T07:00:17.217Z,100752.22
2022-12-11T07:03:40.291Z,100748.06
2022-12-11T07:07:03.246Z,100748.13
2022-12-11T07:10:25.604Z,100747.47
2022-12-11T07:13:47.774Z,100741.53
2022-12-11T07:17:09.609Z,100741.72
2022-12-11T07:20:33.016Z,100744.28
2022-12-11T07:23:54.836Z,100756.22
2022-12-11T07:27:16.815Z,100750.41
2022-12-11T07:30:39.655Z,100745.34
2022-12-11T07:34:03.937Z,100747.13
2022-12-11T07:37:27.996Z,100743.78
2022-12-11T07:40:49.722Z,100745.63
2022-12-11T07:44:13.029Z,100752.56
2022-12-11T07:47:35.339Z,100747.50
2022-12-11T07:50:57.013Z,100751.88
2022-12-11T07:54:22.670Z,100744.31
2022-12-11T07:57:44.853Z,100745.28
2022-12-11T08:01:07.516Z,100743.66
2022-12-11T08:04:29.531Z,100739.59
2022-12-11T08:07:51.128Z,100743.09
2022-12-11T08:11:18.207Z,100735.59
2022-12-11T08:14:39.824Z,100733.13
2022-12-11T08:18:01.598Z,100724.75
2022-12-11T08:21:25.435Z,100717.16
2022-12-11T08:24:48.302Z,100726.63
2022-12-11T08:28:11.506Z,100722.50
2022-12-11T08:31:33.367Z,100694.47
2022-12-11T08:34:55.369Z,100710.13
2022-12-11T08:38:20.953Z,100712.84
2022-12-11T08:41:47.536Z,100713.81
2022-12-11T08:45:12.067Z,100712.22
2022-12-11T08:48:34.061Z,100705.53
2022-12-11T08:51:55.996Z,100715.88
2022-12-11T08:55:17.784Z,100706.56
2022-12-11T08:58:40.278Z,100710.19
2022-12-11T09:02:03.265Z,100711.16
2022-12-11T09:05:24.963Z,100707.81
2022-12-11T09:08:52.291Z,100714.66
2022-12-11T09:12:15.202Z,100722.38
2022-12-11T09:15:38.308Z,100713.09
2022-12-11T09:19:02.177Z,100713.16
2022-12-11T09:22:24.208Z,100703.44
2022-12-11T09:25:46.248Z,100720.00
2022-12-11T09:29:08.190Z,100728.50
2022-12-11T09:32:30.659Z,100726.91
2022-12-11T09:36:00.230Z,100727.88
2022-12-11T09:39:22.506Z,100731.34
2022-12-11T09:42:59.548Z,100740.81
2022-12-11T09:46:24.707Z,100725.66
2022-12-11T09:49:48.948Z,100728.28
2022-12-11T09:53:17.615Z,100725.88
2022-12-11T09:56:47.740Z,100715.66
2022-12-11T10:00:18.915Z,100726.00
2022-12-11T10:03:53.123Z,100715.81
2022-12-11T10:07:19.729Z,100714.22
2022-12-11T10:10:47.470Z,100715.13
2022-12-11T10:14:19.995Z,100711.03
2022-12-11T10:17:44.776Z,100705.25
2022-12-11T10:21:07.557Z,100695.09
2022-12-11T10:28:22.600Z,100711.44
2022-12-11T10:31:51.569Z,100690.19
2022-12-11T10:35:21.063Z,100683.50
2022-12-11T10:38:46.039Z,100682.81
2022-12-11T10:42:17.754Z,100658.22
2022-12-11T10:45:41.708Z,100663.50
2022-12-11T10:49:03.632Z,100671.28
2022-12-11T10:52:28.039Z,100652.59
2022-12-11T10:55:50.945Z,100661.25
2022-12-11T10:59:25.246Z,100656.19
2022-12-11T11:02:48.664Z,100670.56
2022-12-11T11:06:18.709Z,100676.56
2022-12-11T11:09:43.869Z,100669.00
2022-12-11T11:13:05.911Z,100657.97
2022-12-11T11:16:27.960Z,100671.56
2022-12-11T11:19:51.368Z,100659.66
2022-12-11T11:23:16.450Z,100655.44
2022-12-11T11:27:11.573Z,100664.78
2022-12-11T11:30:27.075Z,100653.78
2022-12-11T11:33:57.199Z,100646.97
2022-12-11T11:37:31.565Z,100654.66
2022-12-11T11:41:05.625Z,100654.72
2022-12-11T11:44:37.675Z,100647.81
2022-12-11T11:48:11.462Z,100648.78
2022-12-11T11:51:41.174Z,100652.09
2022-12-11T11:55:10.904Z,100646.75
2022-12-11T11:58:41.282Z,100648.44
2022-12-11T12:02:02.862Z,100646.69
2022-12-11T12:05:33.079Z,100650.81
2022-12-11T12:09:01.057Z,100644.78
2022-12-11T12:12:37.200Z,100647.19
2022-12-11T12:16:04.991Z,100636.94
2022-12-11T12:19:44.512Z,100640.28
2022-12-11T12:23:37.518Z,100631.63
2022-12-11T12:27:13.436Z,100629.97
2022-12-11T12:30:59.280Z,100631.56
2022-12-11T12:34:33.836Z,100632.41
2022-12-11T12:38:01.585Z,100602.31
2022-12-11T12:41:29.843Z,100598.91
2022-12-11T12:44:59.883Z,100622.94
2022-12-11T12:48:26.281Z,100622.94
2022-12-11T12:51:48.933Z,100618.78
2022-12-11T12:55:23.124Z,100615.38
2022-12-11T12:58:49.182Z,100613.63
2022-12-11T13:02:19.931Z,100606.84
2022-12-11T13:05:45.961Z,100606.91
2022-12-11T13:09:18.651Z,100587.22
2022-12-11T13:12:47.759Z,100600.06
2022-12-11T13:16:26.928Z,100609.47
2022-12-11T13:19:50.040Z,100615.38
2022-12-11T13:23:20.543Z,100609.41
2022-12-11T13:26:42.645Z,100597.59
2022-12-11T13:30:22.310Z,100606.00
2022-12-11T13:33:47.283Z,100603.38
2022-12-11T13:37:26.045Z,100578.59
2022-12-11T13:40:55.000Z,100595.81
2022-12-11T13:44:23.000Z,100593.28
2022-12-11T13:47:46.260Z,100588.19
2022-12-11T13:51:08.771Z,100575.28
2022-12-11T13:54:31.955Z,100575.28
2022-12-11T13:57:55.276Z,100567.75
2022-12-11T14:01:22.246Z,100575.47
2022-12-11T14:04:44.516Z,100572.84
2022-12-11T14:08:10.754Z,100565.16
2022-12-11T14:11:36.886Z,100579.38
2022-12-11T14:15:03.345Z,100557.09
2022-12-11T14:18:28.557Z,100579.25
2022-12-11T14:21:58.548Z,100579.16
2022-12-11T14:25:25.066Z,100577.38
2022-12-11T14:28:47.106Z,100577.94
2022-12-11T14:32:10.723Z,100575.00
2022-12-11T14:35:38.880Z,100583.34
2022-12-11T14:39:05.001Z,100594.28
2022-12-11T14:42:31.851Z,100578.97
2022-12-11T14:45:59.365Z,100580.63
2022-12-11T14:49:27.581Z,100556.78
2022-12-11T14:52:53.687Z,100565.97
2022-12-11T14:56:20.620Z,100554.09
2022-12-11T14:59:47.504Z,100545.53
2022-12-11T15:03:23.821Z,100544.63
2022-12-11T15:06:49.126Z,100542.91
2022-12-11T15:10:24.389Z,100542.16
2022-12-11T15:13:52.764Z,100538.53
2022-12-11T15:17:16.406Z,100519.81
2022-12-11T15:20:38.864Z,100535.19
2022-12-11T15:24:04.887Z,100524.88
2022-12-11T15:27:33.619Z,100517.34
2022-12-11T15:30:58.127Z,100520.66
2022-12-11T15:34:24.239Z,100512.19
2022-12-11T15:37:54.261Z,100503.72
2022-12-11T15:41:21.240Z,100481.56
2022-12-11T15:44:43.776Z,100486.00
2022-12-11T15:48:06.222Z,100489.34
2022-12-11T15:51:29.278Z,100484.31
2022-12-11T15:54:51.313Z,100468.31
2022-12-11T15:58:20.007Z,100477.66
2022-12-11T16:01:42.168Z,100479.28
2022-12-11T16:05:03.907Z,100463.09
2022-12-11T16:08:26.414Z,100458.00
2022-12-11T16:11:48.179Z,100463.94
2022-12-11T16:15:17.498Z,100452.88
2022-12-11T16:18:43.512Z,100456.31
2022-12-11T16:22:05.799Z,100429.75
2022-12-11T16:25:31.830Z,100448.63
2022-12-11T16:28:56.035Z,100452.88
2022-12-11T16:32:19.392Z,100468.94
2022-12-11T16:35:41.876Z,100461.28
2022-12-11T16:39:04.130Z,100436.00
2022-12-11T16:42:26.161Z,100426.63
2022-12-11T16:45:48.116Z,100432.63
2022-12-11T16:49:11.484Z,100428.34
2022-12-11T16:52:33.664Z,100418.09
2022-12-11T16:55:55.625Z,100429.31
2022-12-11T16:59:17.559Z,100422.47
2022-12-11T17:02:39.550Z,100414.09
2022-12-11T17:06:02.919Z,100409.06
2022-12-11T17:09:28.713Z,100399.69
2022-12-11T17:12:50.888Z,100399.75
2022-12-11T17:16:14.900Z,100387.94
2022-12-11T17:19:37.392Z,100384.44
2022-12-11T17:23:02.192Z,100382.06
2022-12-11T17:26:25.398Z,100376.06
2022-12-11T17:29:49.607Z,100383.81
2022-12-11T17:33:12.362Z,100376.25
2022-12-11T17:36:36.645Z,100378.81
2022-12-11T17:39:59.746Z,100372.91
2022-12-11T17:43:21.545Z,100372.13
2022-12-11T17:46:43.290Z,100364.53
2022-12-11T17:50:07.039Z,100354.34
2022-12-11T17:53:28.762Z,100346.81
2022-12-11T17:56:53.911Z,100334.19
2022-12-11T18:00:17.561Z,100317.25
2022-12-11T18:03:39.328Z,100305.22
2022-12-11T18:07:01.603Z,100316.47
2022-12-11T18:10:26.009Z,100306.38
2022-12-11T18:13:50.251Z,100298.88
2022-12-11T18:17:12.389Z,100298.88
2022-12-11T18:20:36.029Z,100287.91
2022-12-11T18:23:58.129Z,100282.06
2022-12-11T18:27:19.835Z,100273.66
2022-12-11T18:30:43.311Z,100268.63
2022-12-11T18:34:06.233Z,100264.44
2022-12-11T18:37:28.350Z,100262.75
2022-12-11T18:40:50.329Z,100253.50
2022-12-11T18:44:12.323Z,100245.94
2022-12-11T18:47:35.882Z,100240.00
2022-12-11T18:50:57.673Z,100241.03
2022-12-11T18:54:19.935Z,100217.97
2022-12-11T18:57:42.088Z,100232.59
2022-12-11T19:01:08.446Z,100222.50
2022-12-11T19:04:32.098Z,100212.38
2022-12-11T19:07:54.248Z,100204.78
2022-12-11T19:11:17.290Z,100193.72
2022-12-11T19:14:39.135Z,100176.03
2022-12-11T19:18:01.204Z,100189.66
2022-12-11T19:21:24.850Z,100188.84
2022-12-11T19:24:46.813Z,100149.88
2022-12-11T19:28:08.603Z,100152.47
2022-12-11T19:31:32.870Z,100165.22
2022-12-11T19:34:55.199Z,100158.50
2022-12-11T19:38:18.498Z,100157.66
2022-12-11T19:41:40.675Z,100140.78
2022-12-11T19:45:04.187Z,100132.34
2022-12-11T19:48:26.300Z,100141.69
2022-12-11T19:51:48.466Z,100139.13
2022-12-11T19:55:15.090Z,100136.66
2022-12-11T19:58:37.281Z,100129.06
2022-12-11T20:01:59.163Z,100120.63
2022-12-11T20:05:21.215Z,100127.41
2022-12-11T20:08:45.666Z,100106.16
2022-12-11T20:12:10.635Z,100109.63
2022-12-11T20:15:33.031Z,100086.78
2022-12-11T20:18:55.938Z,100096.06
2022-12-11T20:22:18.046Z,100096.06
2022-12-11T20:25:40.531Z,100108.84
2022-12-11T20:29:07.330Z,100090.19
2022-12-11T20:32:30.206Z,100084.25
2022-12-11T20:35:52.139Z,100076.66
2022-12-11T20:39:15.184Z,100080.00
2022-12-11T20:42:37.169Z,100086.81
2022-12-11T20:46:01.324Z,100066.47
2022-12-11T20:49:23.392Z,100077.50
2022-12-11T20:52:45.483Z,100067.31
2022-12-11T20:56:11.204Z,100055.47
2022-12-11T20:59:33.259Z,100058.81
2022-12-11T21:02:57.375Z,100043.59
2022-12-11T21:06:20.489Z,100038.53
2022-12-11T21:09:42.420Z,100048.66
2022-12-11T21:13:04.696Z,100029.13
2022-12-11T21:16:26.829Z,100026.59
2022-12-11T21:19:50.622Z,100035.03
2022-12-11T21:23:12.850Z,100013.78
2022-12-11T21:26:35.008Z,100018.88
2022-12-11T21:29:57.433Z,100019.69
2022-12-11T21:33:19.284Z,100017.13
2022-12-11T21:36:44.080Z,100027.34
2022-12-11T21:40:06.903Z,100007.78
2022-12-11T21:43:28.892Z,100005.28
2022-12-11T21:46:50.917Z,100003.56
2022-12-11T21:50:13.003Z,100007.81
2022-12-11T21:53:35.909Z,100012.06
2022-12-11T21:56:57.991Z,99999.25
2022-12-11T22:00:20.264Z,100010.34
2022-12-11T22:03:42.306Z,100005.19
2022-12-11T22:07:03.854Z,100006.97
2022-12-11T22:10:27.291Z,100007.78
2022-12-11T22:13:49.485Z,100014.56
2022-12-11T22:17:11.351Z,99998.44
2022-12-11T22:20:33.521Z,99995.91
2022-12-11T22:23:55.578Z,99982.34
2022-12-11T22:27:23.482Z,99992.50
2022-12-11T22:30:48.013Z,99988.28
2022-12-11T22:34:09.769Z,99978.06
2022-12-11T22:37:32.155Z,99992.50
2022-12-11T22:40:55.198Z,99984.88
2022-12-11T22:44:20.633Z,99985.72
2022-12-11T22:47:42.589Z,99978.94
2022-12-11T22:51:06.534Z,99974.72
2022-12-11T22:54:28.428Z,99970.47
2022-12-11T22:57:50.181Z,99959.44
2022-12-11T23:01:16.684Z,99967.13
2022-12-11T23:04:38.774Z,99950.97
2022-12-11T23:08:00.638Z,99946.78
2022-12-11T23:11:26.466Z,99934.03
2022-12-11T23:14:48.143Z,99923.00
2022-12-11T23:18:11.468Z,99917.94
2022-12-11T23:21:36.766Z,99919.63
2022-12-11T23:24:58.650Z,99902.72
2022-12-11T23:28:21.065Z,99900.16
2022-12-11T23:31:43.046Z,99874.69
2022-12-11T23:35:07.066Z,99878.13
2022-12-11T23:38:28.974Z,99868.75
2022-12-11T23:41:53.844Z,99880.72
2022-12-11T23:45:15.666Z,99863.69
2022-12-11T23:48:37.611Z,99837.38
2022-12-11T23:52:01.221Z,99870.53
2022-12-11T23:55:25.529Z,99865.47
2022-12-11T23:58:47.511Z,99870.53
